createdAt,value
2022-10-19T00:02:00.207Z,16.37
2022-10-19T00:04:26.743Z,15.85
2022-10-19T00:06:53.305Z,16.07
2022-10-19T00:09:20.188Z,16.12
2022-10-19T00:11:49.724Z,15.91
2022-10-19T00:14:20.859Z,15.83
2022-10-19T00:16:49.174Z,15.72
2022-10-19T00:19:19.857Z,16.02
2022-10-19T00:21:46.909Z,15.75
2022-10-19T00:24:13.696Z,15.31
2022-10-19T00:26:40.209Z,15.57
2022-10-19T00:29:07.221Z,15.42
2022-10-19T00:31:33.808Z,15.74
2022-10-19T00:34:00.778Z,15.65
2022-10-19T00:36:31.369Z,15.93
2022-10-19T00:38:58.332Z,15.94
2022-10-19T00:41:28.279Z,15.83
2022-10-19T00:44:28.100Z,15.83
2022-10-19T00:46:58.730Z,15.87
2022-10-19T00:49:29.729Z,15.88
2022-10-19T00:52:01.554Z,15.83
2022-10-19T00:54:28.334Z,15.52
2022-10-19T00:56:58.207Z,15.43
2022-10-19T00:59:27.130Z,15.42
2022-10-19T01:01:54.807Z,15.29
2022-10-19T01:04:25.617Z,15.02
2022-10-19T01:06:53.533Z,14.79
2022-10-19T01:09:20.153Z,14.93
2022-10-19T01:11:49.704Z,14.67
2022-10-19T01:14:47.511Z,14.81
2022-10-19T01:17:13.968Z,15.06
2022-10-19T01:20:09.747Z,15.19
2022-10-19T01:23:11.826Z,15.18
2022-10-19T01:26:03.166Z,15.15
2022-10-19T01:29:10.349Z,15.21
2022-10-19T01:31:58.054Z,15.08
2022-10-19T01:34:32.713Z,14.65
2022-10-19T01:37:31.988Z,14.86
2022-10-19T01:40:15.368Z,14.99
2022-10-19T01:42:49.744Z,15.13
2022-10-19T01:45:18.665Z,15.28
2022-10-19T01:47:54.708Z,15.35
2022-10-19T01:50:31.464Z,15.14
2022-10-19T01:52:59.257Z,14.96
2022-10-19T01:55:27.321Z,14.81
2022-10-19T01:57:59.176Z,14.94
2022-10-19T02:00:27.087Z,15.24
2022-10-19T02:02:56.016Z,14.90
2022-10-19T02:05:28.319Z,15.08
2022-10-19T02:07:59.376Z,14.75
2022-10-19T02:10:27.296Z,14.31
2022-10-19T02:12:55.223Z,14.34
2022-10-19T02:15:25.546Z,14.12
2022-10-19T02:17:57.206Z,14.15
2022-10-19T02:20:24.033Z,14.32
2022-10-19T02:22:50.834Z,14.37
2022-10-19T02:25:17.510Z,14.39
2022-10-19T02:27:44.491Z,14.49
2022-10-19T02:30:14.463Z,14.55
2022-10-19T02:32:42.221Z,14.50
2022-10-19T02:35:10.085Z,14.26
2022-10-19T02:40:09.299Z,14.15
2022-10-19T02:42:43.864Z,14.28
2022-10-19T02:45:28.177Z,14.28
2022-10-19T02:47:59.880Z,14.16
2022-10-19T02:50:26.775Z,13.93
2022-10-19T02:52:53.331Z,14.32
2022-10-19T02:55:20.023Z,14.18
2022-10-19T02:57:46.603Z,14.13
2022-10-19T03:00:13.241Z,14.24
2022-10-19T03:02:39.683Z,14.18
2022-10-19T03:05:06.716Z,14.08
2022-10-19T03:07:33.545Z,14.07
2022-10-19T03:10:00.300Z,13.84
2022-10-19T03:12:26.820Z,13.94
2022-10-19T03:14:53.375Z,13.89
2022-10-19T03:17:19.935Z,14.02
2022-10-19T03:19:46.488Z,14.08
2022-10-19T03:22:14.838Z,14.06
2022-10-19T03:24:41.527Z,14.23
2022-10-19T03:27:08.421Z,13.95
2022-10-19T03:29:34.884Z,14.08
2022-10-19T03:32:01.422Z,13.82
2022-10-19T03:34:27.976Z,13.99
2022-10-19T03:36:54.700Z,13.77
2022-10-19T03:39:21.162Z,13.91
2022-10-19T03:41:47.744Z,13.72
2022-10-19T03:44:14.271Z,13.65
2022-10-19T03:46:40.945Z,13.72
2022-10-19T03:49:08.974Z,13.53
2022-10-19T03:51:36.297Z,13.75
2022-10-19T03:54:08.136Z,13.51
2022-10-19T03:56:35.499Z,13.65
2022-10-19T03:59:03.536Z,13.37
2022-10-19T04:01:38.761Z,13.57
2022-10-19T04:04:08.095Z,13.48
2022-10-19T04:06:37.279Z,13.63
2022-10-19T04:09:05.840Z,13.24
2022-10-19T04:11:33.776Z,13.18
2022-10-19T04:14:00.863Z,13.37
2022-10-19T04:16:29.762Z,13.50
2022-10-19T04:18:57.129Z,13.26
2022-10-19T04:21:26.735Z,13.45
2022-10-19T04:23:58.063Z,13.20
2022-10-19T04:26:24.660Z,13.55
2022-10-19T04:28:51.319Z,13.28
2022-10-19T04:31:17.883Z,13.43
2022-10-19T04:36:16.214Z,13.20
2022-10-19T04:38:42.796Z,13.33
2022-10-19T04:41:12.274Z,13.33
2022-10-19T04:43:39.372Z,13.06
2022-10-19T04:46:10.989Z,13.05
2022-10-19T04:48:38.696Z,13.35
2022-10-19T04:51:05.766Z,13.32
2022-10-19T04:53:33.106Z,13.01
2022-10-19T04:55:59.831Z,13.20
2022-10-19T04:58:27.270Z,13.31
2022-10-19T05:00:53.898Z,13.00
2022-10-19T05:03:20.551Z,12.75
2022-10-19T05:05:47.116Z,12.71
2022-10-19T05:08:15.518Z,12.74
2022-10-19T05:10:46.956Z,12.63
2022-10-19T05:13:14.526Z,12.87
2022-10-19T05:15:41.025Z,13.07
2022-10-19T05:18:08.078Z,12.94
2022-10-19T05:20:34.558Z,12.38
2022-10-19T05:23:06.149Z,12.44
2022-10-19T05:25:33.816Z,12.39
2022-10-19T05:28:00.324Z,12.71
2022-10-19T05:30:26.792Z,12.36
2022-10-19T05:32:53.310Z,13.04
2022-10-19T05:35:22.420Z,12.97
2022-10-19T05:37:53.530Z,12.67
2022-10-19T05:40:19.996Z,12.54
2022-10-19T05:42:46.528Z,12.29
2022-10-19T05:45:13.076Z,12.54
2022-10-19T05:47:39.808Z,12.32
2022-10-19T05:50:06.635Z,12.63
2022-10-19T05:52:33.085Z,12.91
2022-10-19T05:54:59.591Z,12.64
2022-10-19T05:57:26.177Z,12.74
2022-10-19T05:59:52.823Z,12.69
2022-10-19T06:02:19.308Z,12.89
2022-10-19T06:04:45.798Z,12.97
2022-10-19T06:07:12.332Z,12.82
2022-10-19T06:09:38.845Z,12.91
2022-10-19T06:12:05.423Z,12.58
2022-10-19T06:14:31.954Z,12.78
2022-10-19T06:16:58.711Z,12.62
2022-10-19T06:19:25.410Z,12.39
2022-10-19T06:21:51.914Z,12.51
2022-10-19T06:24:18.576Z,12.60
2022-10-19T06:26:45.364Z,12.52
2022-10-19T06:29:30.549Z,12.53
2022-10-19T06:31:59.673Z,12.60
2022-10-19T06:34:26.420Z,12.61
2022-10-19T06:36:52.958Z,12.86
2022-10-19T06:39:19.481Z,12.67
2022-10-19T06:41:46.121Z,12.73
2022-10-19T06:44:12.715Z,13.27
2022-10-19T06:46:39.222Z,13.34
2022-10-19T06:49:05.705Z,13.10
2022-10-19T06:51:34.112Z,12.72
2022-10-19T06:54:00.807Z,13.60
2022-10-19T06:56:27.434Z,13.79
2022-10-19T06:58:56.238Z,13.93
2022-10-19T07:01:23.204Z,14.09
2022-10-19T07:03:53.594Z,14.85
2022-10-19T07:06:20.414Z,14.31
2022-10-19T07:08:47.294Z,14.05
2022-10-19T07:11:22.532Z,14.25
2022-10-19T07:13:49.625Z,14.31
2022-10-19T07:16:21.086Z,15.08
2022-10-19T07:18:49.993Z,14.99
2022-10-19T07:21:17.051Z,15.09
2022-10-19T07:23:45.416Z,14.75
2022-10-19T07:26:17.768Z,14.84
2022-10-19T07:28:46.769Z,15.65
2022-10-19T07:31:17.873Z,15.67
2022-10-19T07:33:44.752Z,14.86
2022-10-19T07:36:13.267Z,14.27
2022-10-19T07:38:40.568Z,13.82
2022-10-19T07:41:10.165Z,14.30
2022-10-19T07:43:36.836Z,14.36
2022-10-19T07:46:09.405Z,14.51
2022-10-19T07:48:36.051Z,14.06
2022-10-19T07:51:05.478Z,13.69
2022-10-19T07:53:32.969Z,13.15
2022-10-19T07:56:06.327Z,13.39
2022-10-19T07:58:34.272Z,13.22
2022-10-19T08:01:08.058Z,13.16
2022-10-19T08:06:22.466Z,13.33
2022-10-19T08:08:49.162Z,13.29
2022-10-19T08:11:19.409Z,12.75
2022-10-19T08:13:57.091Z,12.52
2022-10-19T08:16:29.494Z,12.69
2022-10-19T08:18:58.828Z,12.77
2022-10-19T08:21:26.686Z,13.20
2022-10-19T08:23:53.546Z,13.14
2022-10-19T08:26:20.665Z,13.97
2022-10-19T08:28:47.526Z,15.67
2022-10-19T08:31:17.538Z,15.22
2022-10-19T08:33:44.670Z,15.03
2022-10-19T08:36:13.410Z,15.17
2022-10-19T08:38:43.460Z,16.03
2022-10-19T08:41:37.715Z,16.90
2022-10-19T08:44:09.354Z,17.14
2022-10-19T08:46:51.354Z,16.98
2022-10-19T08:49:21.331Z,17.35
2022-10-19T08:51:54.502Z,18.95
2022-10-19T08:54:21.532Z,16.93
2022-10-19T08:57:05.243Z,17.51
2022-10-19T08:59:48.168Z,17.79
2022-10-19T09:02:41.755Z,17.79
2022-10-19T09:05:44.849Z,17.69
2022-10-19T09:08:17.428Z,17.83
2022-10-19T09:10:47.749Z,18.19
2022-10-19T09:13:47.093Z,18.82
2022-10-19T09:16:21.243Z,17.82
2022-10-19T09:18:49.350Z,19.39
2022-10-19T09:21:31.108Z,19.55
2022-10-19T09:24:32.477Z,19.44
2022-10-19T09:27:01.038Z,18.70
2022-10-19T09:29:44.764Z,18.86
2022-10-19T09:32:15.568Z,18.62
2022-10-19T09:34:47.259Z,18.50
2022-10-19T09:37:24.869Z,19.04
2022-10-19T09:39:55.034Z,18.35
2022-10-19T09:42:29.410Z,18.54
2022-10-19T09:44:59.061Z,18.94
2022-10-19T09:47:33.913Z,18.50
2022-10-19T09:50:20.812Z,20.66
2022-10-19T09:52:56.861Z,19.80
2022-10-19T09:55:43.980Z,19.78
2022-10-19T09:58:13.540Z,21.04
2022-10-19T10:00:44.972Z,21.60
2022-10-19T10:03:40.247Z,20.27
2022-10-19T10:06:13.536Z,18.91
2022-10-19T10:09:00.336Z,19.32
2022-10-19T10:11:33.725Z,20.08
2022-10-19T10:14:12.251Z,19.64
2022-10-19T10:16:38.817Z,18.81
2022-10-19T10:19:13.095Z,18.26
2022-10-19T10:21:50.922Z,17.67
2022-10-19T10:24:19.389Z,17.66
2022-10-19T10:26:48.417Z,18.49
2022-10-19T10:29:29.368Z,18.41
2022-10-19T10:32:00.112Z,17.58
2022-10-19T10:34:49.354Z,18.63
2022-10-19T10:37:29.984Z,18.51
2022-10-19T10:40:01.792Z,18.35
2022-10-19T10:42:35.082Z,18.21
2022-10-19T10:45:03.324Z,18.09
2022-10-19T10:47:33.611Z,18.34
2022-10-19T10:50:05.833Z,18.22
2022-10-19T10:52:33.483Z,18.28
2022-10-19T10:55:14.543Z,18.88
2022-10-19T10:57:46.105Z,18.65
2022-10-19T11:00:30.677Z,18.89
2022-10-19T11:03:25.042Z,18.09
2022-10-19T11:05:57.305Z,18.12
2022-10-19T11:08:31.441Z,17.73
2022-10-19T11:11:10.951Z,18.21
2022-10-19T11:13:56.124Z,17.79
2022-10-19T11:16:35.714Z,18.16
2022-10-19T11:21:55.296Z,17.71
2022-10-19T11:24:33.070Z,17.59
2022-10-19T11:27:12.561Z,17.39
2022-10-19T11:29:50.064Z,17.35
2022-10-19T11:32:55.737Z,17.68
2022-10-19T11:35:54.072Z,18.32
2022-10-19T11:38:50.683Z,17.95
2022-10-19T11:41:31.867Z,18.30
2022-10-19T11:44:20.243Z,18.80
2022-10-19T11:47:15.014Z,17.98
2022-10-19T11:50:05.756Z,18.31
2022-10-19T11:52:46.173Z,17.87
2022-10-19T11:55:22.073Z,18.18
2022-10-19T11:57:56.418Z,18.11
2022-10-19T12:00:39.623Z,18.38
2022-10-19T12:03:43.836Z,18.14
2022-10-19T12:06:31.669Z,18.00
2022-10-19T12:08:58.241Z,18.25
2022-10-19T12:12:03.088Z,18.17
2022-10-19T12:14:38.330Z,17.83
2022-10-19T12:19:44.653Z,18.45
2022-10-19T12:22:19.223Z,18.47
2022-10-19T12:24:46.489Z,18.32
2022-10-19T12:27:16.214Z,18.95
2022-10-19T12:29:47.759Z,18.73
2022-10-19T12:32:21.683Z,18.38
2022-10-19T12:35:04.503Z,17.93
2022-10-19T12:37:47.411Z,18.32
2022-10-19T12:40:26.376Z,18.78
2022-10-19T12:43:14.995Z,18.16
2022-10-19T12:45:46.897Z,18.28
2022-10-19T12:48:14.361Z,18.13
2022-10-19T12:50:50.341Z,18.05
2022-10-19T12:53:38.985Z,18.08
2022-10-19T12:56:14.219Z,18.22
2022-10-19T13:01:33.104Z,18.51
2022-10-19T13:04:12.329Z,17.35
2022-10-19T13:06:46.925Z,17.95
2022-10-19T13:09:25.018Z,18.29
2022-10-19T13:12:17.768Z,18.32
2022-10-19T13:14:53.236Z,18.58
2022-10-19T13:17:36.455Z,18.43
2022-10-19T13:20:15.056Z,18.81
2022-10-19T13:22:46.610Z,18.67
2022-10-19T13:25:18.870Z,18.86
2022-10-19T13:27:49.987Z,18.95
2022-10-19T13:30:35.375Z,18.42
2022-10-19T13:33:30.241Z,18.76
2022-10-19T13:35:59.504Z,18.85
2022-10-19T13:38:29.868Z,18.86
2022-10-19T13:41:16.984Z,18.39
2022-10-19T13:43:43.417Z,18.44
2022-10-19T13:46:18.491Z,18.73
2022-10-19T13:49:09.530Z,18.70
2022-10-19T13:51:51.535Z,19.15
2022-10-19T13:54:52.371Z,18.66
2022-10-19T13:57:30.833Z,19.35
2022-10-19T14:00:03.709Z,18.78
2022-10-19T14:02:39.426Z,18.69
2022-10-19T14:05:22.505Z,18.54
2022-10-19T14:08:38.341Z,18.37
2022-10-19T14:11:13.548Z,18.51
2022-10-19T14:13:40.174Z,18.26
2022-10-19T14:16:07.092Z,18.26
2022-10-19T14:18:35.816Z,18.37
2022-10-19T14:21:03.999Z,18.50
2022-10-19T14:23:36.655Z,18.55
2022-10-19T14:26:14.370Z,18.31
2022-10-19T14:28:41.444Z,18.52
2022-10-19T14:31:10.674Z,18.26
2022-10-19T14:33:47.431Z,18.25
2022-10-19T14:36:17.672Z,18.47
2022-10-19T14:38:44.852Z,18.48
2022-10-19T14:41:30.400Z,17.92
2022-10-19T14:43:58.693Z,18.10
2022-10-19T14:46:28.772Z,18.18
2022-10-19T14:49:02.711Z,18.07
2022-10-19T14:51:48.254Z,17.86
2022-10-19T14:54:28.989Z,18.22
2022-10-19T14:57:02.298Z,17.99
2022-10-19T14:59:31.022Z,18.03
2022-10-19T15:02:00.026Z,17.93
2022-10-19T15:04:31.854Z,17.55
2022-10-19T15:07:01.597Z,17.18
2022-10-19T15:09:43.712Z,17.31
2022-10-19T15:12:17.860Z,17.45
2022-10-19T15:14:45.935Z,17.56
2022-10-19T15:17:30.602Z,17.64
2022-10-19T15:20:01.275Z,17.69
2022-10-19T15:22:31.151Z,17.40
2022-10-19T15:25:06.542Z,17.34
2022-10-19T15:27:39.520Z,16.76
2022-10-19T15:30:17.879Z,17.11
2022-10-19T15:32:46.775Z,16.93
2022-10-19T15:35:21.314Z,17.29
2022-10-19T15:37:50.054Z,17.23
2022-10-19T15:40:25.613Z,17.16
2022-10-19T15:42:52.341Z,17.03
2022-10-19T15:45:31.230Z,16.82
2022-10-19T15:48:36.873Z,16.94
2022-10-19T15:51:03.407Z,16.90
2022-10-19T15:53:29.899Z,17.09
2022-10-19T15:55:58.211Z,16.93
2022-10-19T15:58:25.137Z,16.83
2022-10-19T16:00:51.745Z,16.94
2022-10-19T16:03:18.293Z,16.77
2022-10-19T16:05:45.023Z,17.22
2022-10-19T16:08:12.584Z,16.56
2022-10-19T16:10:39.233Z,16.69
2022-10-19T16:13:05.780Z,16.83
2022-10-19T16:15:32.444Z,16.81
2022-10-19T16:18:00.023Z,16.23
2022-10-19T16:20:28.734Z,16.44
2022-10-19T16:22:55.906Z,16.54
2022-10-19T16:25:22.434Z,16.48
2022-10-19T16:27:48.945Z,16.24
2022-10-19T16:30:15.530Z,16.21
2022-10-19T16:35:13.491Z,16.17
2022-10-19T16:37:39.966Z,16.43
2022-10-19T16:40:07.113Z,16.42
2022-10-19T16:42:34.780Z,15.94
2022-10-19T16:45:01.501Z,15.83
2022-10-19T16:47:27.962Z,15.88
2022-10-19T16:49:59.043Z,15.97
2022-10-19T16:52:33.215Z,16.00
2022-10-19T16:55:00.238Z,15.80
2022-10-19T16:57:26.792Z,15.83
2022-10-19T17:02:25.572Z,15.74
2022-10-19T17:04:52.166Z,15.80
2022-10-19T17:07:19.076Z,15.44
2022-10-19T17:09:45.750Z,15.34
2022-10-19T17:12:13.257Z,15.57
2022-10-19T17:14:41.900Z,15.55
2022-10-19T17:17:10.351Z,15.40
2022-10-19T17:19:37.810Z,15.39
2022-10-19T17:22:05.489Z,15.47
2022-10-19T17:24:32.336Z,15.74
2022-10-19T17:27:02.839Z,15.66
2022-10-19T17:29:29.498Z,15.29
2022-10-19T17:31:55.978Z,15.26
2022-10-19T17:34:22.492Z,15.19
2022-10-19T17:36:49.121Z,14.82
2022-10-19T17:39:19.801Z,14.56
2022-10-19T17:41:47.998Z,14.71
2022-10-19T17:44:15.397Z,14.85
2022-10-19T17:46:42.650Z,14.71
2022-10-19T17:49:10.173Z,14.96
2022-10-19T17:51:37.990Z,15.19
2022-10-19T17:54:10.850Z,14.95
2022-10-19T17:56:39.918Z,14.57
2022-10-19T17:59:08.828Z,14.72
2022-10-19T18:01:36.298Z,14.74
2022-10-19T18:04:03.032Z,15.01
2022-10-19T18:06:31.917Z,14.90
2022-10-19T18:08:59.918Z,14.36
2022-10-19T18:11:31.598Z,14.20
2022-10-19T18:14:00.555Z,14.49
2022-10-19T18:16:33.296Z,14.45
2022-10-19T18:19:01.297Z,14.32
2022-10-19T18:21:35.184Z,14.12
2022-10-19T18:24:03.101Z,14.14
2022-10-19T18:26:32.167Z,14.43
2022-10-19T18:29:00.154Z,14.29
2022-10-19T18:31:31.475Z,14.27
2022-10-19T18:34:03.117Z,14.36
2022-10-19T18:36:30.815Z,14.10
2022-10-19T18:39:00.215Z,14.01
2022-10-19T18:41:27.143Z,13.91
2022-10-19T18:44:03.115Z,13.95
2022-10-19T18:46:29.864Z,13.88
2022-10-19T18:48:56.422Z,13.89
2022-10-19T18:51:24.038Z,13.90
2022-10-19T18:53:50.887Z,13.99
2022-10-19T18:56:19.823Z,14.05
2022-10-19T18:58:47.214Z,13.90
2022-10-19T19:01:24.312Z,13.61
2022-10-19T19:03:53.267Z,13.70
2022-10-19T19:06:22.833Z,14.09
2022-10-19T19:08:49.529Z,13.86
2022-10-19T19:11:19.076Z,13.64
2022-10-19T19:13:51.383Z,13.25
2022-10-19T19:16:18.608Z,13.47
2022-10-19T19:18:45.203Z,13.25
2022-10-19T19:21:17.479Z,13.41
2022-10-19T19:23:44.656Z,13.27
2022-10-19T19:26:12.875Z,12.96
2022-10-19T19:28:41.812Z,13.25
2022-10-19T19:31:11.438Z,13.72
2022-10-19T19:33:38.747Z,13.67
2022-10-19T19:36:07.125Z,13.39
2022-10-19T19:38:34.312Z,13.32
2022-10-19T19:41:03.724Z,13.22
2022-10-19T19:43:31.781Z,13.13
2022-10-19T19:46:03.297Z,13.05
2022-10-19T19:48:32.818Z,12.90
2022-10-19T19:50:59.372Z,12.93
2022-10-19T19:53:26.673Z,12.93
2022-10-19T19:55:53.962Z,12.97
2022-10-19T19:58:20.482Z,13.12
2022-10-19T20:00:47.048Z,13.09
2022-10-19T20:03:13.693Z,13.23
2022-10-19T20:05:40.730Z,13.13
2022-10-19T20:08:08.188Z,12.94
2022-10-19T20:10:39.843Z,13.05
2022-10-19T20:13:06.415Z,12.98
2022-10-19T20:15:33.242Z,12.94
2022-10-19T20:17:59.780Z,12.95
2022-10-19T20:20:26.543Z,13.03
2022-10-19T20:22:53.129Z,13.02
2022-10-19T20:25:19.680Z,12.93
2022-10-19T20:27:46.258Z,12.83
2022-10-19T20:30:12.898Z,12.79
2022-10-19T20:32:39.459Z,12.86
2022-10-19T20:35:07.394Z,12.51
2022-10-19T20:37:33.972Z,12.45
2022-10-19T20:40:01.543Z,12.47
2022-10-19T20:42:29.909Z,12.78
2022-10-19T20:44:56.535Z,12.77
2022-10-19T20:47:24.209Z,12.72
2022-10-19T20:49:50.942Z,12.86
2022-10-19T20:52:17.464Z,12.95
2022-10-19T20:54:44.008Z,12.92
2022-10-19T20:57:10.541Z,12.86
2022-10-19T20:59:38.663Z,12.82
2022-10-19T21:02:05.241Z,13.06
2022-10-19T21:04:31.771Z,12.86
2022-10-19T21:06:58.394Z,12.92
2022-10-19T21:09:25.907Z,12.69
2022-10-19T21:11:52.721Z,12.73
2022-10-19T21:14:25.454Z,12.75
2022-10-19T21:16:58.460Z,12.64
2022-10-19T21:19:27.921Z,12.59
2022-10-19T21:21:57.930Z,12.65
2022-10-19T21:24:27.377Z,12.69
2022-10-19T21:26:54.215Z,12.80
2022-10-19T21:29:21.230Z,12.76
2022-10-19T21:31:51.767Z,12.88
2022-10-19T21:34:21.574Z,12.91
2022-10-19T21:36:48.523Z,12.80
2022-10-19T21:39:15.556Z,12.66
2022-10-19T21:41:42.036Z,12.71
2022-10-19T21:44:08.768Z,12.59
2022-10-19T21:46:35.341Z,12.88
2022-10-19T21:49:01.957Z,12.69
2022-10-19T21:51:37.538Z,12.62
2022-10-19T21:54:07.169Z,12.60
2022-10-19T21:56:34.442Z,12.67
2022-10-19T21:59:00.942Z,12.81
2022-10-19T22:01:29.767Z,13.01
2022-10-19T22:03:58.209Z,12.86
2022-10-19T22:06:27.599Z,12.62
2022-10-19T22:08:55.030Z,12.43
2022-10-19T22:11:22.233Z,12.38
2022-10-19T22:13:49.036Z,12.23
2022-10-19T22:16:18.767Z,12.52
2022-10-19T22:18:46.322Z,12.53
2022-10-19T22:21:15.454Z,12.62
2022-10-19T22:23:42.968Z,12.69
2022-10-19T22:26:17.428Z,12.74
2022-10-19T22:28:44.267Z,12.71
2022-10-19T22:31:12.013Z,12.58
2022-10-19T22:33:39.210Z,12.36
2022-10-19T22:36:08.501Z,12.27
2022-10-19T22:38:35.821Z,12.34
2022-10-19T22:41:02.289Z,12.32
2022-10-19T22:43:28.740Z,12.40
2022-10-19T22:45:55.233Z,12.43
2022-10-19T22:48:21.738Z,12.41
2022-10-19T22:50:48.449Z,12.56
2022-10-19T22:53:14.970Z,12.16
2022-10-19T22:55:41.515Z,12.03
2022-10-19T22:58:08.589Z,12.01
2022-10-19T23:00:35.399Z,11.87
2022-10-19T23:03:01.879Z,11.68
2022-10-19T23:05:28.360Z,11.76
2022-10-19T23:07:54.851Z,11.82
2022-10-19T23:10:21.351Z,11.92
2022-10-19T23:12:51.835Z,12.03
2022-10-19T23:15:19.495Z,11.73
2022-10-19T23:17:46.036Z,11.84
2022-10-19T23:20:13.038Z,11.75
2022-10-19T23:22:40.203Z,11.87
2022-10-19T23:25:07.463Z,11.69
2022-10-19T23:27:34.527Z,11.62
2022-10-19T23:30:01.882Z,11.71
2022-10-19T23:32:28.344Z,11.64
2022-10-19T23:34:54.895Z,11.68
2022-10-19T23:37:21.410Z,12.01
2022-10-19T23:39:47.864Z,11.74
2022-10-19T23:42:14.303Z,11.82
2022-10-19T23:44:40.789Z,11.78
2022-10-19T23:47:07.317Z,11.46
2022-10-19T23:49:33.846Z,11.57
2022-10-19T23:52:00.322Z,11.86
2022-10-19T23:54:26.798Z,11.59
2022-10-19T23:56:53.299Z,11.51
2022-10-19T23:59:19.949Z,11.73
